Search for airport 
image banner adimage banner adimage banner ad
image banner ad

70PN - Sanders Personal Use

Located in Sugar Grove, United States

ICAO - 70PN, IATA -

Data provided by Airmate  

General information

Coordinates: N41°59'21" W79°18'4"
Elevation is 1455 feet MSL.
Magnetic variation is -09° East
View others Airports in Pennsylvania

Operational data

Special qualification required
Current time UTC:
Current local time:
Weather at : KJHW - Chautauqua County/Jamestown ( 19 km )
METAR: KJHW 071204Z AUTO 05009KT 010V120 10SM SCT007 OVC050 03/02 A2991 RMK AO2 RAE00 P0000
TAF: KJHW 071120Z 0712/0812 VRB05KT P6SM -SHRA SCT008 OVC015 FM071600 03005KT 3SM RA BR OVC007 FM071900 34008KT 6SM -SHRA BR OVC007 FM072200 33006KT P6SM BKN015 FM080300 VRB03KT 3SM BR SCT008 FM080700 VRB03KT 5SM BR VCSH BKN005
View NOTAMs / SUP AIP / TFR affecting this airport [VIEW]
Communications frequencies: [VIEW]

Runways:

RWY identifierQFULength (ft)Width (ft)SurfaceLDA (ft)
082000120GRASS
262000120GRASS

Airport contact information

Address: Sugar Grove United States

Satellite view of 70PN